createdAt,value
2023-01-13T00:02:01.217Z,95524.19
2023-01-13T00:04:27.934Z,95522.19
2023-01-13T00:06:54.733Z,95517.16
2023-01-13T00:09:21.313Z,95504.03
2023-01-13T00:11:47.945Z,95496.41
2023-01-13T00:14:14.574Z,95491.22
2023-01-13T00:16:41.129Z,95492.38
2023-01-13T00:19:07.768Z,95481.09
2023-01-13T00:21:34.405Z,95486.13
2023-01-13T00:24:01.107Z,95481.97
2023-01-13T00:26:30.640Z,95478.38
2023-01-13T00:28:59.076Z,95471.31
2023-01-13T00:31:26.200Z,95463.56
2023-01-13T00:33:53.201Z,95467.09
2023-01-13T00:36:20.473Z,95471.38
2023-01-13T00:38:47.935Z,95470.41
2023-01-13T00:41:15.657Z,95474.56
2023-01-13T00:43:42.314Z,95472.88
2023-01-13T00:46:10.103Z,95466.56
2023-01-13T00:48:37.907Z,95465.88
2023-01-13T00:51:06.491Z,95463.28
2023-01-13T00:53:34.171Z,95460.72
2023-01-13T00:56:39.790Z,95451.22
2023-01-13T00:59:08.365Z,95450.25
2023-01-13T01:01:35.028Z,95444.09
2023-01-13T01:04:01.659Z,95437.19
2023-01-13T01:06:28.525Z,95448.00
2023-01-13T01:08:55.714Z,95435.41
2023-01-13T01:11:23.621Z,95445.31
2023-01-13T01:13:52.610Z,95440.78
2023-01-13T01:16:20.172Z,95440.09
2023-01-13T01:18:47.669Z,95444.66
2023-01-13T01:21:14.400Z,95446.69
2023-01-13T01:23:41.370Z,95444.25
2023-01-13T01:26:13.084Z,95446.59
2023-01-13T01:28:39.980Z,95459.53
2023-01-13T01:31:08.004Z,95448.06
2023-01-13T01:33:34.634Z,95455.56
2023-01-13T01:36:01.980Z,95451.44
2023-01-13T01:38:28.611Z,95448.19
2023-01-13T01:40:55.663Z,95455.25
2023-01-13T01:43:42.277Z,95455.97
2023-01-13T01:46:08.843Z,95450.56
2023-01-13T01:48:40.023Z,95452.72
2023-01-13T01:51:09.554Z,95441.75
2023-01-13T01:53:36.486Z,95450.59
2023-01-13T01:56:03.580Z,95434.59
2023-01-13T01:58:37.707Z,95445.47
2023-01-13T02:01:04.642Z,95442.66
2023-01-13T02:03:31.437Z,95433.78
2023-01-13T02:05:58.097Z,95435.41
2023-01-13T02:08:25.072Z,95427.41
2023-01-13T02:10:53.897Z,95427.81
2023-01-13T02:13:21.324Z,95439.28
2023-01-13T02:16:03.236Z,95434.09
2023-01-13T02:18:53.634Z,95428.50
2023-01-13T02:21:29.260Z,95425.16
2023-01-13T02:24:23.937Z,95428.84
2023-01-13T02:27:02.675Z,95419.09
2023-01-13T02:30:06.800Z,95404.66
2023-01-13T02:32:36.144Z,95418.19
2023-01-13T02:35:15.296Z,95404.47
2023-01-13T02:37:43.480Z,95409.66
2023-01-13T02:40:16.887Z,95411.22
2023-01-13T02:43:06.720Z,95406.16
2023-01-13T02:45:54.420Z,95409.75
2023-01-13T02:48:23.207Z,95411.44
2023-01-13T02:51:02.667Z,95411.78
2023-01-13T02:53:34.655Z,95406.09
2023-01-13T02:56:02.633Z,95413.09
2023-01-13T02:58:30.429Z,95415.25
2023-01-13T03:00:57.270Z,95414.09
2023-01-13T03:03:23.904Z,95414.03
2023-01-13T03:05:52.246Z,95415.34
2023-01-13T03:08:18.696Z,95399.13
2023-01-13T03:10:48.885Z,95396.63
2023-01-13T03:13:18.420Z,95390.59
2023-01-13T03:15:49.133Z,95396.84
2023-01-13T03:18:18.338Z,95392.38
2023-01-13T03:20:52.330Z,95395.47
2023-01-13T03:23:21.604Z,95388.75
2023-01-13T03:25:56.659Z,95387.38
2023-01-13T03:28:27.997Z,95374.75
2023-01-13T03:30:58.786Z,95373.06
2023-01-13T03:33:25.269Z,95371.63
2023-01-13T03:35:53.039Z,95370.00
2023-01-13T03:38:27.623Z,95366.88
2023-01-13T03:40:56.695Z,95359.63
2023-01-13T03:43:55.161Z,95360.63
2023-01-13T03:46:27.008Z,95357.25
2023-01-13T03:48:56.528Z,95361.13
2023-01-13T03:51:25.194Z,95363.75
2023-01-13T03:53:55.292Z,95356.03
2023-01-13T03:56:26.787Z,95358.06
2023-01-13T03:58:53.889Z,95354.81
2023-01-13T04:01:24.095Z,95351.03
2023-01-13T04:03:55.500Z,95344.91
2023-01-13T04:06:38.212Z,95340.63
2023-01-13T04:09:22.936Z,95342.25
2023-01-13T04:11:53.612Z,95343.84
2023-01-13T04:14:20.765Z,95337.84
2023-01-13T04:16:48.226Z,95335.00
2023-01-13T04:19:14.740Z,95333.47
2023-01-13T04:21:41.222Z,95333.69
2023-01-13T04:24:08.733Z,95332.50
2023-01-13T04:26:35.390Z,95317.75
2023-01-13T04:29:01.924Z,95319.41
2023-01-13T04:31:28.368Z,95313.72
2023-01-13T04:33:54.826Z,95315.69
2023-01-13T04:36:25.108Z,95319.72
2023-01-13T04:38:51.616Z,95321.31
2023-01-13T04:41:18.008Z,95317.97
2023-01-13T04:43:44.527Z,95314.97
2023-01-13T04:46:11.265Z,95308.63
2023-01-13T04:48:37.791Z,95302.91
2023-01-13T04:51:04.322Z,95302.72
2023-01-13T04:53:30.718Z,95307.16
2023-01-13T04:55:57.139Z,95302.72
2023-01-13T04:58:23.536Z,95314.22
2023-01-13T05:00:50.531Z,95316.78
2023-01-13T05:03:17.115Z,95313.97
2023-01-13T05:05:43.567Z,95312.66
2023-01-13T05:08:11.809Z,95314.63
2023-01-13T05:10:38.382Z,95321.13
2023-01-13T05:13:23.218Z,95304.59
2023-01-13T05:16:11.178Z,95305.63
2023-01-13T05:18:37.794Z,95296.28
2023-01-13T05:21:04.223Z,95308.72
2023-01-13T05:23:49.419Z,95310.06
2023-01-13T05:26:16.098Z,95309.59
2023-01-13T05:28:42.548Z,95311.94
2023-01-13T05:31:09.249Z,95312.50
2023-01-13T05:33:36.015Z,95315.03
2023-01-13T05:36:03.297Z,95303.84
2023-01-13T05:38:29.721Z,95297.69
2023-01-13T05:41:21.379Z,95302.44
2023-01-13T05:43:47.861Z,95313.41
2023-01-13T05:46:14.884Z,95311.84
2023-01-13T05:48:42.484Z,95310.81
2023-01-13T05:51:10.086Z,95313.56
2023-01-13T05:53:36.913Z,95308.44
2023-01-13T05:56:04.440Z,95310.16
2023-01-13T05:58:31.222Z,95305.75
2023-01-13T06:01:01.368Z,95299.09
2023-01-13T06:03:27.889Z,95300.44
2023-01-13T06:05:58.750Z,95307.47
2023-01-13T06:08:25.738Z,95303.84
2023-01-13T06:10:52.385Z,95299.97
2023-01-13T06:13:19.047Z,95294.28
2023-01-13T06:15:45.553Z,95296.13
2023-01-13T06:18:12.047Z,95305.94
2023-01-13T06:20:38.528Z,95309.31
2023-01-13T06:23:08.371Z,95306.72
2023-01-13T06:25:53.342Z,95309.91
2023-01-13T06:28:19.778Z,95322.88
2023-01-13T06:30:51.030Z,95318.00
2023-01-13T06:33:20.493Z,95317.72
2023-01-13T06:35:51.364Z,95317.53
2023-01-13T06:38:18.261Z,95322.81
2023-01-13T06:40:44.974Z,95314.13
2023-01-13T06:43:17.712Z,95308.94
2023-01-13T06:45:46.635Z,95316.00
2023-01-13T06:48:13.931Z,95318.72
2023-01-13T06:50:42.110Z,95315.38
2023-01-13T06:53:08.872Z,95320.72
2023-01-13T06:55:35.762Z,95316.13
2023-01-13T06:58:02.256Z,95319.09
2023-01-13T07:00:28.815Z,95322.16
2023-01-13T07:03:06.990Z,95313.59
2023-01-13T07:05:33.569Z,95328.25
2023-01-13T07:08:00.040Z,95323.69
2023-01-13T07:10:26.449Z,95321.09
2023-01-13T07:13:11.511Z,95317.00
2023-01-13T07:15:37.952Z,95310.25
2023-01-13T07:18:04.405Z,95323.09
2023-01-13T07:20:30.850Z,95327.53
2023-01-13T07:22:57.596Z,95319.09
2023-01-13T07:25:24.324Z,95315.97
2023-01-13T07:27:50.740Z,95322.31
2023-01-13T07:30:17.343Z,95313.31
2023-01-13T07:32:43.807Z,95322.00
2023-01-13T07:35:10.288Z,95320.50
2023-01-13T07:37:37.668Z,95326.44
2023-01-13T07:40:04.742Z,95319.81
2023-01-13T07:42:50.067Z,95317.13
2023-01-13T07:45:16.507Z,95318.38
2023-01-13T07:47:42.944Z,95332.50
2023-01-13T07:50:09.643Z,95320.31
2023-01-13T07:52:36.077Z,95335.03
2023-01-13T07:55:02.529Z,95318.72
2023-01-13T07:57:29.118Z,95328.03
2023-01-13T07:59:55.603Z,95323.69
2023-01-13T08:02:22.291Z,95333.00
2023-01-13T08:04:48.804Z,95333.28
2023-01-13T08:07:15.217Z,95330.78
2023-01-13T08:09:41.648Z,95334.72
2023-01-13T08:12:26.869Z,95341.50
2023-01-13T08:14:54.058Z,95344.00
2023-01-13T08:17:20.818Z,95338.00
2023-01-13T08:19:47.497Z,95345.84
2023-01-13T08:22:13.963Z,95324.28
2023-01-13T08:24:40.386Z,95344.16
2023-01-13T08:27:06.899Z,95345.91
2023-01-13T08:29:33.320Z,95355.59
2023-01-13T08:31:59.844Z,95362.03
2023-01-13T08:34:26.289Z,95357.50
2023-01-13T08:36:52.823Z,95356.06
2023-01-13T08:39:19.239Z,95372.66
2023-01-13T08:41:58.727Z,95373.41
2023-01-13T08:44:26.472Z,95377.44
2023-01-13T08:46:53.093Z,95370.63
2023-01-13T08:49:19.778Z,95375.31
2023-01-13T08:51:46.236Z,95370.75
2023-01-13T08:54:13.053Z,95378.91
2023-01-13T08:56:40.940Z,95378.00
2023-01-13T08:59:10.143Z,95382.91
2023-01-13T09:01:39.285Z,95384.72
2023-01-13T09:04:06.279Z,95392.88
2023-01-13T09:06:32.820Z,95386.97
2023-01-13T09:08:59.668Z,95408.19
2023-01-13T09:11:48.225Z,95409.16
2023-01-13T09:14:19.020Z,95402.78
2023-01-13T09:16:45.430Z,95410.19
2023-01-13T09:19:12.277Z,95413.31
2023-01-13T09:21:38.752Z,95410.34
2023-01-13T09:24:05.313Z,95418.41
2023-01-13T09:26:31.845Z,95424.28
2023-01-13T09:28:58.296Z,95426.50
2023-01-13T09:31:24.916Z,95425.38
2023-01-13T09:34:10.194Z,95431.16
2023-01-13T09:36:36.675Z,95436.06
2023-01-13T09:39:03.342Z,95437.84
2023-01-13T09:41:49.888Z,95440.75
2023-01-13T09:44:19.898Z,95445.66
2023-01-13T09:46:49.547Z,95446.88
2023-01-13T09:49:22.186Z,95446.16
2023-01-13T09:52:02.753Z,95449.88
2023-01-13T09:54:55.659Z,95457.63
2023-01-13T09:57:22.117Z,95457.53
2023-01-13T09:59:48.609Z,95461.53
2023-01-13T10:02:29.229Z,95454.31
2023-01-13T10:05:06.007Z,95460.25
2023-01-13T10:07:34.643Z,95483.28
2023-01-13T10:10:02.165Z,95478.22
2023-01-13T10:12:50.572Z,95478.00
2023-01-13T10:15:20.434Z,95480.25
2023-01-13T10:17:49.887Z,95472.56
2023-01-13T10:20:19.404Z,95466.19
2023-01-13T10:22:52.616Z,95459.56
2023-01-13T10:25:20.655Z,95464.03
2023-01-13T10:27:50.095Z,95459.06
2023-01-13T10:30:25.979Z,95454.75
2023-01-13T10:32:54.758Z,95466.84
2023-01-13T10:35:40.065Z,95457.38
2023-01-13T10:38:15.391Z,95459.94
2023-01-13T10:41:08.162Z,95448.50
2023-01-13T10:43:34.616Z,95448.91
2023-01-13T10:46:03.805Z,95438.41
2023-01-13T10:48:35.008Z,95450.13
2023-01-13T10:51:22.205Z,95437.56
2023-01-13T10:54:07.584Z,95442.13
2023-01-13T10:56:34.273Z,95442.31
2023-01-13T10:59:13.130Z,95449.19
2023-01-13T11:01:41.754Z,95440.13
2023-01-13T11:04:26.727Z,95438.50
2023-01-13T11:06:53.163Z,95435.28
2023-01-13T11:09:20.424Z,95449.50
2023-01-13T11:11:48.620Z,95447.31
2023-01-13T11:14:36.244Z,95452.03
2023-01-13T11:17:21.536Z,95461.34
2023-01-13T11:19:50.999Z,95467.91
2023-01-13T11:22:23.378Z,95466.22
2023-01-13T11:24:54.213Z,95480.19
2023-01-13T11:27:39.406Z,95492.88
2023-01-13T11:30:12.287Z,95558.56
2023-01-13T11:32:57.632Z,95562.91
2023-01-13T11:35:24.246Z,95565.63
2023-01-13T11:37:57.864Z,95589.56
2023-01-13T11:40:31.253Z,95610.41
2023-01-13T11:43:11.903Z,95614.66
2023-01-13T11:45:46.146Z,95615.75
2023-01-13T11:48:15.129Z,95625.53
2023-01-13T11:50:51.547Z,95627.34
2023-01-13T11:53:17.971Z,95627.91
2023-01-13T11:56:02.498Z,95642.75
2023-01-13T11:59:00.587Z,95645.22
2023-01-13T12:01:39.475Z,95619.22
2023-01-13T12:04:25.204Z,95589.50
2023-01-13T12:07:14.673Z,95579.78
2023-01-13T12:10:13.576Z,95567.25
2023-01-13T12:12:53.234Z,95572.03
2023-01-13T12:15:38.326Z,95571.75
2023-01-13T12:18:04.753Z,95583.22
2023-01-13T12:20:49.721Z,95587.38
2023-01-13T12:23:19.273Z,95602.81
2023-01-13T12:25:49.606Z,95607.75
2023-01-13T12:28:19.527Z,95606.34
2023-01-13T12:30:50.525Z,95615.09
2023-01-13T12:33:28.055Z,95611.84
2023-01-13T12:36:14.733Z,95614.88
2023-01-13T12:39:10.860Z,95611.06
2023-01-13T12:42:03.343Z,95610.38
2023-01-13T12:44:29.908Z,95610.69
2023-01-13T12:46:57.336Z,95608.56
2023-01-13T12:49:33.895Z,95612.53
2023-01-13T12:52:12.750Z,95611.31
2023-01-13T12:54:39.152Z,95603.16
2023-01-13T12:57:18.777Z,95618.78
2023-01-13T12:59:49.136Z,95625.91
2023-01-13T13:02:15.943Z,95632.56
2023-01-13T13:04:47.829Z,95624.34
2023-01-13T13:07:16.431Z,95626.44
2023-01-13T13:09:44.765Z,95623.81
2023-01-13T13:12:49.030Z,95612.06
2023-01-13T13:15:22.334Z,95613.16
2023-01-13T13:18:00.889Z,95611.81
2023-01-13T13:20:45.991Z,95604.69
2023-01-13T13:23:31.177Z,95614.13
2023-01-13T13:26:21.081Z,95599.31
2023-01-13T13:28:54.756Z,95606.84
2023-01-13T13:31:29.370Z,95603.59
2023-01-13T13:34:08.946Z,95599.09
2023-01-13T13:36:44.837Z,95608.56
2023-01-13T13:39:40.755Z,95603.81
2023-01-13T13:42:34.283Z,95599.84
2023-01-13T13:45:20.357Z,95599.84
2023-01-13T13:47:47.013Z,95593.13
2023-01-13T13:50:21.559Z,95603.44
2023-01-13T13:53:09.263Z,95598.38
2023-01-13T13:55:36.536Z,95603.91
2023-01-13T13:58:02.979Z,95603.13
2023-01-13T14:00:39.280Z,95601.69
2023-01-13T14:03:07.285Z,95595.41
2023-01-13T14:05:34.787Z,95614.38
2023-01-13T14:08:02.524Z,95618.25
2023-01-13T14:10:33.833Z,95625.88
2023-01-13T14:13:01.258Z,95619.56
2023-01-13T14:15:35.167Z,95622.53
2023-01-13T14:18:02.913Z,95617.03
2023-01-13T14:20:29.458Z,95621.13
2023-01-13T14:23:01.303Z,95621.81
2023-01-13T14:25:39.732Z,95623.59
2023-01-13T14:28:26.529Z,95620.28
2023-01-13T14:30:53.627Z,95631.00
2023-01-13T14:33:26.967Z,95632.84
2023-01-13T14:36:11.697Z,95641.25
2023-01-13T14:38:38.789Z,95645.97
2023-01-13T14:41:15.507Z,95651.22
2023-01-13T14:43:42.909Z,95657.88
2023-01-13T14:46:09.540Z,95660.34
2023-01-13T14:48:36.425Z,95670.41
2023-01-13T14:51:05.713Z,95669.88
2023-01-13T14:53:32.148Z,95675.53
2023-01-13T14:55:58.992Z,95673.97
2023-01-13T14:58:26.432Z,95666.16
2023-01-13T15:01:13.036Z,95670.41
2023-01-13T15:03:42.655Z,95668.94
2023-01-13T15:06:25.683Z,95667.31
2023-01-13T15:08:52.400Z,95685.09
2023-01-13T15:11:27.564Z,95698.56
2023-01-13T15:14:09.513Z,95697.50
2023-01-13T15:16:36.826Z,95698.44
2023-01-13T15:19:04.218Z,95702.16
2023-01-13T15:21:30.643Z,95713.19
2023-01-13T15:23:57.152Z,95710.25
2023-01-13T15:26:28.251Z,95714.31
2023-01-13T15:28:56.070Z,95710.53
2023-01-13T15:31:23.129Z,95720.59
2023-01-13T15:33:49.956Z,95718.09
2023-01-13T15:36:30.167Z,95722.19
2023-01-13T15:38:57.401Z,95721.16
2023-01-13T15:41:42.530Z,95706.59
2023-01-13T15:44:31.921Z,95729.53
2023-01-13T15:46:59.399Z,95721.88
2023-01-13T15:49:45.436Z,95725.00
2023-01-13T15:52:22.268Z,95726.56
2023-01-13T15:54:49.305Z,95724.69
2023-01-13T15:57:21.219Z,95729.25
2023-01-13T15:59:47.829Z,95717.78
2023-01-13T16:02:18.459Z,95732.84
2023-01-13T16:04:45.640Z,95733.38
2023-01-13T16:07:17.083Z,95740.13
2023-01-13T16:09:43.516Z,95739.81
2023-01-13T16:12:09.900Z,95747.22
2023-01-13T16:14:36.401Z,95753.31
2023-01-13T16:17:03.435Z,95759.69
2023-01-13T16:19:29.865Z,95776.00
2023-01-13T16:21:58.822Z,95778.44
2023-01-13T16:24:25.216Z,95770.38
2023-01-13T16:26:51.985Z,95787.38
2023-01-13T16:29:18.389Z,95787.56
2023-01-13T16:31:44.885Z,95794.16
2023-01-13T16:34:11.382Z,95800.31
2023-01-13T16:36:38.015Z,95795.09
2023-01-13T16:39:04.898Z,95804.84
2023-01-13T16:41:31.314Z,95814.63
2023-01-13T16:43:57.952Z,95803.72
2023-01-13T16:46:28.857Z,95812.06
2023-01-13T16:48:57.025Z,95806.94
2023-01-13T16:51:24.145Z,95809.03
2023-01-13T16:53:51.017Z,95812.13
2023-01-13T16:56:23.465Z,95822.97
2023-01-13T16:58:50.660Z,95825.84
2023-01-13T17:01:18.884Z,95833.66
2023-01-13T17:03:49.045Z,95835.38
2023-01-13T17:06:17.164Z,95839.53
2023-01-13T17:08:44.045Z,95843.09
2023-01-13T17:11:10.703Z,95850.00
2023-01-13T17:13:37.151Z,95858.75
2023-01-13T17:16:03.665Z,95875.03
2023-01-13T17:18:30.144Z,95866.97
2023-01-13T17:20:58.695Z,95878.72
2023-01-13T17:23:25.238Z,95887.88
2023-01-13T17:25:54.629Z,95892.50
2023-01-13T17:28:21.175Z,95910.25
2023-01-13T17:30:47.866Z,95916.19
2023-01-13T17:33:15.524Z,95952.06
2023-01-13T17:35:42.027Z,95987.88
2023-01-13T17:38:08.475Z,95979.72
2023-01-13T17:40:36.593Z,95997.31
2023-01-13T17:43:03.377Z,95995.25
2023-01-13T17:45:29.843Z,96010.09
2023-01-13T17:47:59.592Z,96004.03
2023-01-13T17:50:27.693Z,95994.97
2023-01-13T17:52:54.335Z,96001.50
2023-01-13T17:55:20.775Z,96001.94
2023-01-13T17:57:47.194Z,96006.97
2023-01-13T18:00:13.850Z,96020.16
2023-01-13T18:02:40.354Z,96009.72
2023-01-13T18:05:06.982Z,96009.69
2023-01-13T18:07:33.429Z,96016.69
2023-01-13T18:09:59.847Z,96017.38
2023-01-13T18:12:26.267Z,96028.81
2023-01-13T18:14:52.659Z,96024.25
2023-01-13T18:17:19.073Z,96019.38
2023-01-13T18:20:04.232Z,96000.38
2023-01-13T18:22:49.469Z,96003.91
2023-01-13T18:25:34.557Z,96014.31
2023-01-13T18:28:02.664Z,96016.84
2023-01-13T18:30:29.086Z,96015.13
2023-01-13T18:32:55.965Z,96028.78
2023-01-13T18:35:22.454Z,96030.75
2023-01-13T18:37:48.902Z,96038.81
2023-01-13T18:40:15.370Z,96040.34
2023-01-13T18:42:54.739Z,96040.38
2023-01-13T18:45:24.257Z,96042.06
2023-01-13T18:47:51.412Z,96041.91
2023-01-13T18:50:18.842Z,96042.19
2023-01-13T18:52:45.909Z,96043.28
2023-01-13T18:55:12.349Z,96042.50
2023-01-13T18:57:41.925Z,96044.06
2023-01-13T19:00:10.453Z,96039.97
2023-01-13T19:02:37.088Z,96036.53
2023-01-13T19:05:03.925Z,96044.09
2023-01-13T19:07:31.862Z,96040.78
2023-01-13T19:09:59.586Z,96054.41
2023-01-13T19:12:26.460Z,96039.19
2023-01-13T19:14:54.289Z,96037.47
2023-01-13T19:17:21.203Z,96029.78
2023-01-13T19:19:49.004Z,96027.25
2023-01-13T19:22:16.875Z,96031.50
2023-01-13T19:24:43.536Z,96023.63
2023-01-13T19:27:10.632Z,96034.91
2023-01-13T19:29:37.098Z,96036.63
2023-01-13T19:32:03.704Z,96045.22
2023-01-13T19:34:30.389Z,96048.50
2023-01-13T19:36:57.267Z,96046.81
2023-01-13T19:39:24.128Z,96054.41
2023-01-13T19:42:09.321Z,96045.06
2023-01-13T19:44:54.618Z,96057.97
2023-01-13T19:47:21.042Z,96069.16
2023-01-13T19:49:47.504Z,96065.59
2023-01-13T19:52:14.277Z,96076.78
2023-01-13T19:54:40.722Z,96078.56
2023-01-13T19:57:07.390Z,96089.69
2023-01-13T19:59:34.271Z,96082.72
2023-01-13T20:02:01.420Z,96083.41
2023-01-13T20:04:33.866Z,96083.72
2023-01-13T20:07:00.764Z,96082.75
2023-01-13T20:09:27.208Z,96092.25
2023-01-13T20:11:53.843Z,96092.41
2023-01-13T20:14:20.500Z,96099.88
2023-01-13T20:16:46.966Z,96098.97
2023-01-13T20:19:13.418Z,96101.75
2023-01-13T20:21:40.873Z,96115.06
2023-01-13T20:24:09.866Z,96113.53
2023-01-13T20:26:38.339Z,96108.28
2023-01-13T20:29:04.906Z,96106.59
2023-01-13T20:31:31.406Z,96106.59
2023-01-13T20:33:57.850Z,96114.34
2023-01-13T20:36:43.639Z,96109.34
2023-01-13T20:39:13.048Z,96110.13
2023-01-13T20:41:58.435Z,96104.22
2023-01-13T20:44:24.860Z,96111.97
2023-01-13T20:46:54.419Z,96110.22
2023-01-13T20:49:21.458Z,96117.84
2023-01-13T20:51:48.203Z,96115.16
2023-01-13T20:54:14.609Z,96128.19
2023-01-13T20:56:41.017Z,96127.25
2023-01-13T20:59:07.961Z,96135.84
2023-01-13T21:01:34.433Z,96130.81
2023-01-13T21:04:01.416Z,96136.00
2023-01-13T21:06:29.049Z,96135.94
2023-01-13T21:08:55.866Z,96143.69
2023-01-13T21:11:41.281Z,96146.31
2023-01-13T21:14:33.542Z,96143.53
2023-01-13T21:17:00.021Z,96136.53
2023-01-13T21:19:26.541Z,96149.25
2023-01-13T21:21:53.003Z,96138.88
2023-01-13T21:24:19.843Z,96140.06
2023-01-13T21:26:47.198Z,96146.84
2023-01-13T21:29:13.688Z,96146.00
2023-01-13T21:31:40.147Z,96136.69
2023-01-13T21:34:06.700Z,96137.44
2023-01-13T21:36:33.086Z,96152.13
2023-01-13T21:38:59.805Z,96152.13
2023-01-13T21:41:44.864Z,96153.84
2023-01-13T21:44:39.698Z,96155.09
2023-01-13T21:47:31.923Z,96158.59
2023-01-13T21:49:58.411Z,96152.94
2023-01-13T21:52:26.036Z,96162.13
2023-01-13T21:55:11.243Z,96162.16
2023-01-13T21:57:37.665Z,96158.59
2023-01-13T22:00:05.207Z,96157.06
2023-01-13T22:02:32.096Z,96167.41
2023-01-13T22:04:59.432Z,96166.44
2023-01-13T22:07:27.450Z,96176.78
2023-01-13T22:09:54.575Z,96175.28
2023-01-13T22:12:23.906Z,96182.91
2023-01-13T22:14:50.899Z,96184.84
2023-01-13T22:17:18.394Z,96182.31
2023-01-13T22:19:44.853Z,96181.47
2023-01-13T22:22:14.273Z,96175.41
2023-01-13T22:24:43.318Z,96175.41
2023-01-13T22:27:10.487Z,96182.97
2023-01-13T22:29:37.833Z,96180.41
2023-01-13T22:32:05.176Z,96183.13
2023-01-13T22:34:31.996Z,96187.22
2023-01-13T22:36:58.997Z,96187.19
2023-01-13T22:39:25.608Z,96181.03
2023-01-13T22:41:52.257Z,96190.47
2023-01-13T22:44:19.279Z,96185.25
2023-01-13T22:46:45.816Z,96182.69
2023-01-13T22:49:12.617Z,96179.19
2023-01-13T22:51:39.212Z,96168.16
2023-01-13T22:54:05.719Z,96162.06
2023-01-13T22:56:32.364Z,96153.41
2023-01-13T22:59:00.430Z,96155.31
2023-01-13T23:01:28.104Z,96158.75
2023-01-13T23:03:54.990Z,96165.75
2023-01-13T23:06:22.394Z,96167.59
2023-01-13T23:08:49.340Z,96166.94
2023-01-13T23:11:17.047Z,96174.63
2023-01-13T23:13:43.641Z,96170.25
2023-01-13T23:16:17.676Z,96169.28
2023-01-13T23:18:48.086Z,96172.78
2023-01-13T23:21:19.292Z,96168.50
2023-01-13T23:23:46.258Z,96178.00
2023-01-13T23:26:13.147Z,96173.00
2023-01-13T23:28:39.573Z,96180.63
2023-01-13T23:31:10.452Z,96185.00
2023-01-13T23:33:43.875Z,96183.97
2023-01-13T23:36:15.016Z,96186.63
2023-01-13T23:38:42.108Z,96181.38
2023-01-13T23:41:09.309Z,96174.56
2023-01-13T23:43:36.153Z,96174.53
2023-01-13T23:46:03.643Z,96176.25
2023-01-13T23:48:30.194Z,96167.78
2023-01-13T23:50:57.956Z,96171.22
2023-01-13T23:53:24.526Z,96164.41
2023-01-13T23:55:56.236Z,96165.22
2023-01-13T23:58:22.604Z,96157.47
